Time;durP1;ratioP1;P1;durP2;ratioP2;P2;SDS_P1;SDS_P2;PMS_P1;PMS_P2;Temp;Humidity;BMP_temperature;BMP_pressure;BME280_temperature;BME280_humidity;BME280_pressure;Samples;Min_cycle;Max_cycle;Signal;HPM_P1;HPM_P2
2021/03/19 00:01:36;;;;;;;15.27;10.17;;;4.00;99.90;;;;;;4999157;28;20893;-69
2021/03/19 00:04:02;;;;;;;16.10;10.13;;;4.00;99.90;;;;;;5012587;28;20191;-69
2021/03/19 00:06:28;;;;;;;13.17;8.70;;;4.10;99.90;;;;;;5012260;28;20435;-68
2021/03/19 00:08:53;;;;;;;15.40;8.40;;;4.00;99.90;;;;;;5012508;28;20894;-69
2021/03/19 00:11:19;;;;;;;12.20;8.30;;;3.90;99.90;;;;;;5012418;28;20636;-68
2021/03/19 00:13:44;;;;;;;13.23;8.47;;;3.80;99.90;;;;;;4994565;28;20226;-69
2021/03/19 00:16:11;;;;;;;15.47;9.00;;;3.80;99.90;;;;;;5010573;28;20180;-71
2021/03/19 00:18:37;;;;;;;15.20;8.73;;;3.80;99.90;;;;;;4992897;28;20216;-69
2021/03/19 00:21:03;;;;;;;11.90;9.07;;;3.90;99.90;;;;;;5008832;28;20415;-70
2021/03/19 00:23:29;;;;;;;13.00;8.20;;;3.90;99.90;;;;;;5013366;28;20211;-69
2021/03/19 00:25:55;;;;;;;12.40;8.80;;;3.80;99.90;;;;;;5011896;28;20785;-70
2021/03/19 00:28:20;;;;;;;14.73;10.10;;;3.70;99.90;;;;;;5012232;28;20185;-69
2021/03/19 00:30:47;;;;;;;16.10;10.23;;;3.70;99.90;;;;;;5012142;28;21659;-70
2021/03/19 00:33:14;;;;;;;15.83;10.63;;;3.70;99.90;;;;;;5012227;28;20176;-69
2021/03/19 00:35:40;;;;;;;14.97;9.87;;;3.80;99.90;;;;;;5012228;28;20419;-69
2021/03/19 00:38:06;;;;;;;15.83;10.67;;;3.70;99.90;;;;;;5012026;28;20893;-70
2021/03/19 00:40:33;;;;;;;14.13;10.30;;;3.70;99.90;;;;;;5012174;28;20419;-69
2021/03/19 00:42:59;;;;;;;16.77;10.73;;;3.70;99.90;;;;;;5011625;28;20439;-69
2021/03/19 00:45:26;;;;;;;17.50;10.87;;;3.70;99.90;;;;;;5012009;28;20889;-70
2021/03/19 00:47:53;;;;;;;18.77;10.27;;;3.70;99.90;;;;;;5011804;28;20319;-69
2021/03/19 00:50:27;;;;;;;14.53;10.30;;;3.60;99.90;;;;;;5011789;28;20489;-70
2021/03/19 00:52:52;;;;;;;14.33;10.27;;;3.60;99.90;;;;;;5011741;28;20553;-70
2021/03/19 00:55:18;;;;;;;17.57;11.17;;;3.60;99.90;;;;;;5011577;28;20431;-69
2021/03/19 00:57:43;;;;;;;15.50;11.47;;;3.60;99.90;;;;;;5011845;28;20227;-68
2021/03/19 01:00:12;;;;;;;20.73;12.00;;;3.50;99.90;;;;;;5011643;28;20600;-70
2021/03/19 01:02:38;;;;;;;18.80;11.53;;;3.50;99.90;;;;;;5011616;28;20177;-68
2021/03/19 01:05:37;;;;;;;16.67;10.80;;;3.50;99.90;;;;;;5011566;28;20431;-69
2021/03/19 01:08:03;;;;;;;16.13;10.13;;;3.40;99.90;;;;;;4988031;28;20189;-69
2021/03/19 01:10:33;;;;;;;13.70;10.60;;;3.40;99.90;;;;;;5011256;28;20423;-69
2021/03/19 01:12:58;;;;;;;14.00;9.93;;;3.40;99.90;;;;;;5011619;28;20905;-70
2021/03/19 01:15:25;;;;;;;18.13;11.27;;;3.30;99.90;;;;;;5011540;28;20462;-70
2021/03/19 01:17:51;;;;;;;18.80;11.87;;;3.40;99.90;;;;;;5011259;28;20169;-70
2021/03/19 01:20:19;;;;;;;18.00;11.27;;;3.40;99.90;;;;;;5011343;28;20599;-70
2021/03/19 01:22:44;;;;;;;16.87;11.47;;;3.50;99.90;;;;;;5012622;28;20478;-71
2021/03/19 01:25:14;;;;;;;15.77;12.03;;;3.50;99.90;;;;;;5011310;28;20450;-69
2021/03/19 01:27:40;;;;;;;17.03;11.63;;;3.60;99.90;;;;;;5011158;28;20211;-69
2021/03/19 01:30:08;;;;;;;17.80;12.60;;;3.70;99.90;;;;;;5011063;28;20427;-69
2021/03/19 01:32:33;;;;;;;15.90;11.30;;;3.80;99.90;;;;;;5010510;28;20200;-68
2021/03/19 01:34:59;;;;;;;15.57;11.77;;;3.80;99.90;;;;;;5011035;28;20522;-70
2021/03/19 01:37:27;;;;;;;16.80;12.10;;;3.90;99.90;;;;;;5010934;28;20838;-69
2021/03/19 01:39:52;;;;;;;18.43;12.67;;;3.90;99.90;;;;;;5011073;28;20186;-69
2021/03/19 01:42:18;;;;;;;18.20;11.20;;;3.80;99.90;;;;;;5010922;28;20438;-69
2021/03/19 01:45:07;;;;;;;18.37;12.53;;;3.80;99.90;;;;;;5011183;28;20177;-69
2021/03/19 01:48:10;;;;;;;16.60;11.43;;;3.80;99.90;;;;;;4982859;28;20647;-69
2021/03/19 01:51:13;;;;;;;17.07;12.43;;;3.60;99.90;;;;;;5010571;28;20959;-69
2021/03/19 01:54:15;;;;;;;18.33;11.87;;;3.60;99.90;;;;;;5010747;28;20462;-70
2021/03/19 01:57:18;;;;;;;19.63;13.23;;;3.50;99.90;;;;;;5010614;28;20933;-70
2021/03/19 02:00:21;;;;;;;21.63;13.77;;;3.50;99.90;;;;;;5010873;28;20414;-70
2021/03/19 02:03:24;;;;;;;19.90;13.70;;;3.70;99.90;;;;;;5010693;28;20422;-69
2021/03/19 02:06:27;;;;;;;18.03;12.97;;;3.70;99.90;;;;;;5010477;28;20434;-69
2021/03/19 02:09:30;;;;;;;17.00;13.00;;;3.70;99.90;;;;;;5010380;28;20427;-68
2021/03/19 02:12:33;;;;;;;18.57;12.90;;;3.50;99.90;;;;;;5010467;28;20963;-71
2021/03/19 02:15:36;;;;;;;21.63;14.17;;;3.50;99.90;;;;;;5010727;28;20415;-70
2021/03/19 02:18:39;;;;;;;21.87;14.53;;;3.50;99.90;;;;;;5010167;28;20424;-71
2021/03/19 02:21:42;;;;;;;19.37;13.13;;;3.60;99.90;;;;;;5010570;28;20920;-69
2021/03/19 02:24:45;;;;;;;22.63;14.23;;;3.60;99.90;;;;;;5010291;28;20521;-70
2021/03/19 02:27:48;;;;;;;19.73;13.10;;;3.70;99.90;;;;;;5010104;28;20450;-70
2021/03/19 02:30:50;;;;;;;18.97;13.00;;;3.90;99.90;;;;;;5010222;28;20905;-69
2021/03/19 02:33:16;;;;;;;19.10;13.23;;;4.00;99.90;;;;;;4995094;28;20435;-69
2021/03/19 02:35:53;;;;;;;16.83;13.20;;;4.00;99.90;;;;;;4990887;28;20511;-69
2021/03/19 02:38:19;;;;;;;19.43;14.77;;;3.90;99.90;;;;;;4982838;28;20732;-70
2021/03/19 02:40:45;;;;;;;17.97;14.13;;;3.80;99.90;;;;;;5010349;28;20510;-69
2021/03/19 02:43:10;;;;;;;20.83;14.13;;;3.90;99.90;;;;;;5010213;28;20172;-69
2021/03/19 02:45:36;;;;;;;20.40;14.30;;;3.90;99.90;;;;;;5013647;28;20246;-70
2021/03/19 02:48:01;;;;;;;17.60;13.53;;;4.00;99.90;;;;;;5014218;28;20251;-69
2021/03/19 02:50:27;;;;;;;19.67;14.47;;;4.00;99.90;;;;;;5013904;28;20184;-70
2021/03/19 02:52:53;;;;;;;18.20;14.07;;;4.10;99.90;;;;;;5013689;28;20286;-70
2021/03/19 02:55:18;;;;;;;18.97;14.27;;;4.10;99.90;;;;;;5014125;28;20585;-71
2021/03/19 02:57:44;;;;;;;19.23;14.03;;;4.10;99.90;;;;;;5013735;28;20230;-70
2021/03/19 03:00:18;;;;;;;19.27;13.30;;;4.00;99.90;;;;;;4994436;28;20181;-70
2021/03/19 03:02:44;;;;;;;18.13;13.40;;;3.90;99.90;;;;;;4994103;28;20272;-69
2021/03/19 03:05:10;;;;;;;18.70;14.20;;;3.90;99.90;;;;;;4994222;28;20455;-71
2021/03/19 03:07:36;;;;;;;17.93;13.43;;;3.90;99.90;;;;;;4994113;28;20702;-70
2021/03/19 03:10:03;;;;;;;19.37;14.27;;;4.00;99.90;;;;;;4994214;28;20499;-70
2021/03/19 03:12:28;;;;;;;20.80;13.90;;;4.00;99.90;;;;;;4993968;28;20197;-70
2021/03/19 03:14:54;;;;;;;17.67;12.73;;;4.00;99.90;;;;;;4993892;28;20447;-70
2021/03/19 03:17:20;;;;;;;20.03;13.53;;;4.00;99.90;;;;;;4994238;28;20661;-69
2021/03/19 03:19:46;;;;;;;19.93;13.00;;;4.10;99.90;;;;;;4994010;28;22042;-69
2021/03/19 03:22:12;;;;;;;16.00;13.00;;;4.10;99.90;;;;;;4996294;28;20209;-70
2021/03/19 03:24:38;;;;;;;16.07;12.33;;;4.10;99.90;;;;;;5005680;28;20255;-70
2021/03/19 03:27:05;;;;;;;19.50;13.03;;;4.00;99.90;;;;;;5013119;28;20412;-69
2021/03/19 03:29:31;;;;;;;16.43;12.47;;;4.00;99.90;;;;;;5013395;28;20942;-69
2021/03/19 03:31:57;;;;;;;16.30;12.10;;;4.10;99.90;;;;;;5013306;28;20816;-71
2021/03/19 03:34:23;;;;;;;18.17;13.37;;;4.10;99.90;;;;;;5013337;28;20408;-70
2021/03/19 03:36:50;;;;;;;14.67;12.03;;;4.10;99.90;;;;;;5013329;28;20176;-68
2021/03/19 03:39:23;;;;;;;17.07;12.67;;;4.00;99.90;;;;;;5012764;28;20407;-69
2021/03/19 03:41:49;;;;;;;20.87;13.33;;;4.00;99.90;;;;;;5013461;28;20901;-70
2021/03/19 03:44:16;;;;;;;17.30;13.30;;;4.10;99.90;;;;;;5013026;28;20429;-70
2021/03/19 03:46:44;;;;;;;17.57;13.43;;;4.10;99.90;;;;;;5012735;28;20245;-70
2021/03/19 03:49:13;;;;;;;17.67;12.83;;;4.10;99.90;;;;;;5012838;28;20422;-69
2021/03/19 03:51:38;;;;;;;15.20;11.73;;;4.00;99.90;;;;;;5012849;28;20455;-69
2021/03/19 03:54:04;;;;;;;19.37;13.50;;;3.90;99.90;;;;;;5013023;28;20923;-70
2021/03/19 03:56:30;;;;;;;17.00;13.40;;;3.90;99.90;;;;;;5012711;28;20231;-69
2021/03/19 03:58:56;;;;;;;15.53;11.13;;;3.90;99.90;;;;;;5012689;28;20183;-71
2021/03/19 04:01:23;;;;;;;16.87;11.47;;;3.90;99.90;;;;;;5013031;28;20510;-71
2021/03/19 04:03:50;;;;;;;15.30;11.70;;;3.80;99.90;;;;;;5013032;28;20519;-70
2021/03/19 04:06:16;;;;;;;15.47;11.07;;;3.80;99.90;;;;;;5012835;28;20967;-69
2021/03/19 04:08:41;;;;;;;15.53;10.40;;;3.80;99.90;;;;;;5012532;28;20423;-69
2021/03/19 04:11:11;;;;;;;13.93;10.23;;;3.80;99.90;;;;;;5012295;28;20447;-70
2021/03/19 04:13:37;;;;;;;13.07;10.33;;;3.70;99.90;;;;;;5012710;28;20227;-69
2021/03/19 04:16:03;;;;;;;14.97;10.37;;;3.60;99.90;;;;;;5012522;28;20804;-70
2021/03/19 04:18:29;;;;;;;13.80;10.20;;;3.50;99.90;;;;;;5012137;28;20630;-68
2021/03/19 04:20:57;;;;;;;15.53;10.57;;;3.40;99.90;;;;;;5012760;28;20428;-70
2021/03/19 04:23:25;;;;;;;14.83;10.70;;;3.50;99.90;;;;;;5013755;28;20517;-68
2021/03/19 04:25:51;;;;;;;15.73;11.47;;;3.40;99.90;;;;;;5012632;28;20430;-69
2021/03/19 04:28:20;;;;;;;13.87;10.43;;;3.60;99.90;;;;;;5011987;28;20458;-70
2021/03/19 04:30:47;;;;;;;14.07;10.27;;;3.50;99.90;;;;;;4994096;28;20426;-70
2021/03/19 04:33:19;;;;;;;15.03;11.20;;;3.50;99.90;;;;;;5012084;28;20415;-68
2021/03/19 04:36:19;;;;;;;15.57;11.07;;;3.60;99.90;;;;;;5012052;28;20482;-70
2021/03/19 04:38:45;;;;;;;14.27;10.60;;;3.70;99.90;;;;;;4988636;28;20428;-70
2021/03/19 04:41:12;;;;;;;16.50;11.77;;;3.60;99.90;;;;;;5012205;28;20500;-68
2021/03/19 04:43:37;;;;;;;15.77;12.00;;;3.60;99.90;;;;;;4994208;28;20179;-70
2021/03/19 04:46:03;;;;;;;18.10;11.70;;;3.50;99.90;;;;;;5011977;28;20423;-69
2021/03/19 04:48:29;;;;;;;19.63;11.93;;;3.50;99.90;;;;;;4994250;28;20180;-69
2021/03/19 04:50:55;;;;;;;20.57;12.67;;;3.80;99.90;;;;;;5011827;28;20579;-69
2021/03/19 04:53:21;;;;;;;18.50;13.33;;;3.80;99.90;;;;;;5011744;28;20526;-70
2021/03/19 04:55:46;;;;;;;17.23;12.00;;;3.80;99.90;;;;;;5011358;28;20179;-70
2021/03/19 04:58:12;;;;;;;20.00;13.93;;;3.90;99.90;;;;;;5011805;28;20181;-70
2021/03/19 05:00:38;;;;;;;19.47;13.47;;;3.90;99.90;;;;;;5011635;28;20183;-68
2021/03/19 05:03:03;;;;;;;20.10;13.90;;;4.00;99.90;;;;;;5011844;28;20593;-68
2021/03/19 05:05:32;;;;;;;18.50;14.00;;;4.20;99.90;;;;;;5011313;28;20243;-68
2021/03/19 05:07:58;;;;;;;19.60;14.20;;;4.00;99.90;;;;;;5011211;28;20220;-70
2021/03/19 05:10:28;;;;;;;19.13;14.47;;;4.10;99.90;;;;;;5011181;28;20423;-70
2021/03/19 05:12:54;;;;;;;19.67;14.13;;;4.00;99.90;;;;;;4993706;28;20559;-69
2021/03/19 05:15:21;;;;;;;19.33;14.53;;;4.00;99.90;;;;;;5011168;28;20883;-70
2021/03/19 05:17:46;;;;;;;22.83;15.40;;;4.10;99.90;;;;;;5011505;28;20226;-70
2021/03/19 05:20:14;;;;;;;19.37;14.67;;;4.10;99.90;;;;;;5010957;28;20516;-69
2021/03/19 05:22:39;;;;;;;21.23;15.60;;;4.10;99.90;;;;;;5012446;28;20218;-70
2021/03/19 05:25:08;;;;;;;20.77;15.03;;;4.10;99.90;;;;;;5010870;28;20419;-69
2021/03/19 05:27:34;;;;;;;20.27;15.10;;;4.00;99.90;;;;;;5011127;28;20184;-71
2021/03/19 05:30:00;;;;;;;20.97;15.40;;;3.90;99.90;;;;;;5010598;28;20500;-67
2021/03/19 05:32:26;;;;;;;25.27;16.60;;;4.00;99.90;;;;;;5011061;28;20196;-69
2021/03/19 05:34:52;;;;;;;20.83;14.90;;;4.10;99.90;;;;;;5010999;28;20635;-70
2021/03/19 05:37:19;;;;;;;19.73;14.33;;;4.10;99.90;;;;;;5010673;28;20412;-70
2021/03/19 05:39:45;;;;;;;23.20;15.70;;;4.10;99.90;;;;;;5010991;28;20920;-68
2021/03/19 05:42:32;;;;;;;23.63;15.77;;;4.10;99.90;;;;;;5010859;28;20435;-70
2021/03/19 05:45:29;;;;;;;22.07;15.60;;;4.20;99.90;;;;;;5011064;28;20184;-68
2021/03/19 05:47:57;;;;;;;25.23;15.50;;;4.10;99.90;;;;;;5010933;28;20416;-69
2021/03/19 05:50:35;;;;;;;25.57;16.87;;;4.20;99.90;;;;;;5009639;28;20426;-69
2021/03/19 05:53:11;;;;;;;22.40;14.83;;;4.10;99.90;;;;;;5010655;28;20459;-68
2021/03/19 05:55:39;;;;;;;21.67;15.97;;;4.10;99.90;;;;;;5010729;28;20928;-68
2021/03/19 05:58:11;;;;;;;21.33;15.17;;;4.10;99.90;;;;;;5010656;28;20516;-68
2021/03/19 06:00:37;;;;;;;20.27;14.67;;;4.10;99.90;;;;;;5010428;28;20447;-68
2021/03/19 06:03:03;;;;;;;19.87;14.67;;;4.00;99.90;;;;;;5010869;28;20458;-68
2021/03/19 06:05:30;;;;;;;20.27;14.30;;;4.10;99.90;;;;;;5011225;28;20202;-67
2021/03/19 06:07:59;;;;;;;19.80;13.43;;;4.00;99.90;;;;;;5010860;28;20234;-69
2021/03/19 06:10:24;;;;;;;21.80;14.83;;;4.00;99.90;;;;;;5010559;28;20451;-68
2021/03/19 06:13:17;;;;;;;21.93;14.77;;;4.00;99.90;;;;;;4992514;28;20490;-69
2021/03/19 06:15:46;;;;;;;24.80;15.93;;;3.90;99.90;;;;;;5010796;28;20509;-67
2021/03/19 06:18:36;;;;;;;23.37;14.90;;;4.00;99.90;;;;;;5009904;28;20431;-69
2021/03/19 06:21:06;;;;;;;33.63;17.57;;;3.90;99.90;;;;;;5010297;28;20925;-68
2021/03/19 06:23:34;;;;;;;30.97;17.87;;;3.90;99.90;;;;;;5010793;28;20447;-68
2021/03/19 06:26:27;;;;;;;31.27;19.00;;;3.90;99.90;;;;;;5010368;28;20411;-68
2021/03/19 06:29:13;;;;;;;36.13;20.77;;;4.00;99.90;;;;;;5026470;28;20419;-69
2021/03/19 06:31:40;;;;;;;32.90;20.40;;;4.00;99.90;;;;;;5010139;28;20462;-69
2021/03/19 06:34:23;;;;;;;36.57;21.80;;;4.00;99.90;;;;;;5021208;28;20418;-69
2021/03/19 06:36:53;;;;;;;36.30;21.83;;;4.00;99.90;;;;;;5027347;28;20819;-69
2021/03/19 06:39:31;;;;;;;42.37;20.83;;;4.00;99.90;;;;;;5029746;28;20450;-68
2021/03/19 06:42:13;;;;;;;37.93;22.07;;;4.00;99.90;;;;;;5023446;28;20602;-70
2021/03/19 06:44:40;;;;;;;32.73;20.27;;;4.00;99.90;;;;;;5029085;28;20429;-68
2021/03/19 06:47:28;;;;;;;33.37;20.00;;;4.10;99.90;;;;;;5030061;28;20817;-67
2021/03/19 06:49:55;;;;;;;36.27;23.17;;;4.00;99.90;;;;;;5010101;28;21249;-68
2021/03/19 06:52:21;;;;;;;35.03;21.13;;;4.00;99.90;;;;;;5009748;28;20462;-67
2021/03/19 06:54:53;;;;;;;35.90;21.93;;;3.90;99.90;;;;;;5010271;28;20423;-67
2021/03/19 06:57:20;;;;;;;42.43;25.57;;;3.90;99.90;;;;;;5011362;28;20180;-68
2021/03/19 06:59:47;;;;;;;44.40;26.80;;;3.90;99.90;;;;;;5030015;28;20425;-67
2021/03/19 07:02:32;;;;;;;44.43;27.60;;;3.80;99.90;;;;;;5030263;28;20425;-69
2021/03/19 07:05:36;;;;;;;42.97;26.17;;;3.80;99.90;;;;;;5030035;28;20414;-70
2021/03/19 07:08:25;;;;;;;46.70;29.50;;;3.80;99.90;;;;;;5029555;28;20440;-68
2021/03/19 07:11:18;;;;;;;48.73;30.07;;;3.80;99.90;;;;;;5029686;28;20426;-68
2021/03/19 07:13:58;;;;;;;51.60;29.97;;;3.80;99.90;;;;;;5029377;28;20415;-69
2021/03/19 07:16:42;;;;;;;48.90;29.77;;;3.80;99.90;;;;;;5029630;28;20916;-67
2021/03/19 07:19:19;;;;;;;55.83;32.67;;;3.70;99.90;;;;;;5026386;28;20415;-68
2021/03/19 07:22:12;;;;;;;52.60;31.43;;;3.80;99.90;;;;;;5010847;28;20964;-68
2021/03/19 07:25:02;;;;;;;51.20;30.87;;;3.80;99.90;;;;;;5009432;28;20407;-68
2021/03/19 07:27:41;;;;;;;55.90;33.40;;;3.80;99.90;;;;;;4997606;28;20422;-69
2021/03/19 07:30:24;;;;;;;50.87;32.37;;;3.90;99.90;;;;;;4993820;28;20507;-68
2021/03/19 07:33:09;;;;;;;52.20;33.10;;;4.00;99.90;;;;;;4993879;28;20468;-68
2021/03/19 07:35:53;;;;;;;51.37;32.27;;;4.10;99.90;;;;;;4976211;28;20420;-67
2021/03/19 07:38:33;;;;;;;52.53;32.37;;;4.10;99.90;;;;;;4993860;28;20404;-68
2021/03/19 07:41:15;;;;;;;52.03;32.30;;;4.20;99.90;;;;;;4993624;28;20419;-68
2021/03/19 07:43:56;;;;;;;51.27;33.00;;;4.20;99.90;;;;;;4993541;28;20507;-68
2021/03/19 07:46:43;;;;;;;50.17;31.40;;;4.30;99.90;;;;;;4993806;28;20404;-69
2021/03/19 07:49:33;;;;;;;40.50;26.17;;;4.40;99.90;;;;;;4993599;28;20416;-69
2021/03/19 07:52:29;;;;;;;45.07;27.13;;;4.30;99.90;;;;;;4993454;28;20810;-69
2021/03/19 07:55:11;;;;;;;43.40;26.90;;;4.20;99.90;;;;;;4993389;28;20416;-68
2021/03/19 07:57:57;;;;;;;39.43;26.17;;;4.20;99.90;;;;;;4993831;28;20959;-68
2021/03/19 08:00:30;;;;;;;38.57;24.50;;;4.20;99.90;;;;;;4998974;28;20932;-70
2021/03/19 08:03:13;;;;;;;39.10;23.87;;;4.20;99.90;;;;;;4999999;28;20462;-70
2021/03/19 08:05:46;;;;;;;35.23;23.13;;;4.30;99.90;;;;;;4993377;28;20445;-69
2021/03/19 08:08:16;;;;;;;37.37;22.83;;;4.40;99.90;;;;;;4993168;28;20475;-69
2021/03/19 08:10:57;;;;;;;34.90;22.73;;;4.50;99.90;;;;;;5008780;28;20442;-69
2021/03/19 08:13:40;;;;;;;33.77;22.27;;;4.50;99.90;;;;;;5005451;28;20416;-67
2021/03/19 08:16:18;;;;;;;34.77;22.87;;;4.60;99.90;;;;;;5011118;28;20491;-69
2021/03/19 08:18:47;;;;;;;32.53;22.77;;;4.60;99.90;;;;;;5012502;28;20423;-68
2021/03/19 08:21:42;;;;;;;34.23;22.00;;;4.50;99.90;;;;;;5012442;28;20749;-69
2021/03/19 08:24:37;;;;;;;33.50;21.10;;;4.60;99.90;;;;;;4996151;28;20467;-68
2021/03/19 08:27:06;;;;;;;32.83;21.23;;;4.50;99.90;;;;;;5012530;28;20423;-68
2021/03/19 08:29:53;;;;;;;32.43;20.13;;;4.50;99.90;;;;;;5012432;28;20419;-68
2021/03/19 08:32:18;;;;;;;31.13;21.07;;;4.50;99.90;;;;;;5012122;28;20458;-68
2021/03/19 08:34:52;;;;;;;30.97;20.53;;;4.50;99.90;;;;;;5011952;28;20928;-68
2021/03/19 08:37:41;;;;;;;32.20;20.30;;;4.40;99.90;;;;;;5012038;28;20180;-69
2021/03/19 08:40:16;;;;;;;31.20;19.57;;;4.50;99.90;;;;;;5012325;28;20411;-68
2021/03/19 08:42:47;;;;;;;26.83;18.67;;;4.50;99.90;;;;;;5011385;28;20912;-68
2021/03/19 08:45:21;;;;;;;28.60;19.30;;;4.60;99.90;;;;;;5012266;28;20996;-69
2021/03/19 08:47:50;;;;;;;32.80;19.37;;;4.70;99.90;;;;;;5012134;28;20912;-70
2021/03/19 08:50:16;;;;;;;29.03;19.23;;;4.70;99.90;;;;;;5012196;28;20967;-69
2021/03/19 08:53:13;;;;;;;33.57;19.53;;;4.70;99.90;;;;;;5011694;28;20451;-69
2021/03/19 08:56:05;;;;;;;26.43;18.03;;;4.80;99.90;;;;;;5011911;28;20176;-66
2021/03/19 08:58:31;;;;;;;23.03;15.23;;;4.80;99.90;;;;;;4974203;28;21472;-69
2021/03/19 09:01:05;;;;;;;25.23;17.27;;;4.80;99.90;;;;;;5010078;28;20439;-67
2021/03/19 09:03:43;;;;;;;21.77;15.60;;;4.80;99.90;;;;;;5010424;28;20186;-69
2021/03/19 09:06:14;;;;;;;25.27;16.50;;;4.80;99.90;;;;;;5012279;28;20431;-70
2021/03/19 09:08:57;;;;;;;26.70;16.27;;;4.80;99.90;;;;;;5012030;28;20420;-70
2021/03/19 09:11:44;;;;;;;23.80;15.77;;;4.90;99.90;;;;;;5011735;28;20458;-67
2021/03/19 09:14:10;;;;;;;21.80;15.23;;;5.00;99.90;;;;;;5011650;28;20418;-69
2021/03/19 09:16:50;;;;;;;23.47;15.10;;;5.20;99.90;;;;;;5011708;28;20415;-67
2021/03/19 09:19:41;;;;;;;21.17;13.90;;;5.10;99.90;;;;;;5011887;28;20633;-68
2021/03/19 09:22:32;;;;;;;22.07;14.23;;;5.00;99.90;;;;;;5011807;28;20416;-67
2021/03/19 09:25:13;;;;;;;21.87;13.30;;;4.90;99.90;;;;;;4992184;28;20436;-69
2021/03/19 09:27:45;;;;;;;20.40;14.63;;;4.80;99.90;;;;;;4991958;28;20404;-67
2021/03/19 09:30:29;;;;;;;18.03;13.07;;;4.70;99.90;;;;;;4992105;28;20757;-67
2021/03/19 09:32:57;;;;;;;21.27;15.23;;;4.70;99.90;;;;;;4991311;28;20532;-68
2021/03/19 09:35:37;;;;;;;21.60;13.70;;;4.60;99.90;;;;;;5008202;28;20411;-68
2021/03/19 09:38:11;;;;;;;24.03;15.57;;;4.60;99.90;;;;;;4997225;28;20431;-68
2021/03/19 09:40:48;;;;;;;24.73;16.23;;;4.60;99.90;;;;;;4991570;28;20416;-67
2021/03/19 09:43:40;;;;;;;22.07;15.73;;;4.60;99.90;;;;;;5009059;28;20807;-69
2021/03/19 09:46:29;;;;;;;22.43;15.60;;;4.60;99.90;;;;;;5007031;28;20451;-67
2021/03/19 09:49:04;;;;;;;26.97;16.97;;;4.70;99.90;;;;;;5009717;28;20419;-68
2021/03/19 09:51:34;;;;;;;24.20;15.77;;;4.70;99.90;;;;;;4993317;28;20866;-69
2021/03/19 09:54:29;;;;;;;21.63;15.23;;;4.70;99.90;;;;;;5010970;28;20410;-68
2021/03/19 09:57:00;;;;;;;23.83;15.23;;;4.80;99.90;;;;;;5011053;28;20420;-68
2021/03/19 09:59:29;;;;;;;22.93;14.20;;;4.70;99.90;;;;;;5010857;28;20439;-68
2021/03/19 10:01:56;;;;;;;23.63;15.23;;;4.80;99.90;;;;;;5010688;28;20419;-68
2021/03/19 10:04:48;;;;;;;21.13;15.30;;;5.10;99.90;;;;;;5010846;28;20419;-68
2021/03/19 10:07:20;;;;;;;20.77;13.67;;;5.50;99.90;;;;;;5009035;28;20805;-68
2021/03/19 10:09:56;;;;;;;19.93;13.33;;;5.80;99.90;;;;;;5011004;28;20516;-69
2021/03/19 10:12:43;;;;;;;20.57;14.63;;;6.00;99.90;;;;;;4993051;28;20446;-69
2021/03/19 10:15:25;;;;;;;22.03;14.87;;;6.10;99.90;;;;;;5002777;28;20424;-68
2021/03/19 10:17:55;;;;;;;18.73;13.47;;;6.10;99.90;;;;;;4993791;28;20428;-68
2021/03/19 10:20:30;;;;;;;23.20;13.93;;;6.10;99.90;;;;;;5003086;28;20424;-68
2021/03/19 10:23:18;;;;;;;20.07;13.80;;;6.20;99.90;;;;;;5000284;28;20466;-68
2021/03/19 10:25:45;;;;;;;20.73;14.20;;;6.40;99.90;;;;;;5002123;28;20423;-67
2021/03/19 10:28:17;;;;;;;19.63;13.23;;;6.50;99.90;;;;;;5010855;28;20435;-70
2021/03/19 10:30:44;;;;;;;20.27;13.10;;;6.50;99.90;;;;;;5010510;28;20426;-69
2021/03/19 10:33:16;;;;;;;19.50;13.17;;;6.50;99.90;;;;;;5010502;28;20513;-69
2021/03/19 10:35:49;;;;;;;20.97;12.77;;;6.50;99.90;;;;;;5010402;28;20557;-68
2021/03/19 10:38:33;;;;;;;15.80;11.70;;;6.40;99.90;;;;;;5010537;28;20415;-69
2021/03/19 10:41:12;;;;;;;16.77;12.60;;;6.30;99.90;;;;;;5010418;28;20474;-68
2021/03/19 10:44:00;;;;;;;16.70;12.03;;;6.40;99.90;;;;;;5010500;28;20434;-69
2021/03/19 10:46:56;;;;;;;26.77;12.03;;;6.60;99.90;;;;;;5010254;28;20415;-68
2021/03/19 10:49:34;;;;;;;15.77;10.87;;;6.80;99.90;;;;;;5010260;28;20502;-69
2021/03/19 10:52:06;;;;;;;13.20;10.10;;;6.80;99.90;;;;;;5010085;28;20449;-69
2021/03/19 10:54:44;;;;;;;17.90;11.80;;;6.90;99.90;;;;;;5010265;28;20423;-69
2021/03/19 10:57:26;;;;;;;14.57;10.60;;;6.90;99.90;;;;;;5009933;28;20415;-68
2021/03/19 10:59:54;;;;;;;15.60;11.43;;;6.90;99.90;;;;;;5010448;28;20415;-69
2021/03/19 11:02:23;;;;;;;17.17;11.60;;;6.80;99.90;;;;;;5009947;28;20418;-69
2021/03/19 11:04:55;;;;;;;16.77;11.43;;;6.60;99.90;;;;;;5010701;28;20458;-68
2021/03/19 11:07:25;;;;;;;15.33;11.00;;;6.60;99.90;;;;;;5013818;28;20417;-68
2021/03/19 11:10:01;;;;;;;17.00;12.00;;;6.60;99.90;;;;;;5014053;28;20434;-68
2021/03/19 11:12:49;;;;;;;13.50;10.83;;;6.70;99.90;;;;;;5012407;28;20455;-68
2021/03/19 11:15:35;;;;;;;15.23;11.53;;;6.80;99.90;;;;;;5013924;28;20518;-69
2021/03/19 11:18:19;;;;;;;16.00;10.80;;;7.00;99.90;;;;;;5012074;28;20896;-67
2021/03/19 11:20:49;;;;;;;15.27;10.50;;;7.00;99.90;;;;;;5013883;28;20493;-69
2021/03/19 11:23:36;;;;;;;18.80;12.70;;;6.90;99.90;;;;;;5015142;28;20453;-69
2021/03/19 11:26:28;;;;;;;17.93;10.70;;;6.80;99.90;;;;;;5013700;28;20415;-68
2021/03/19 11:29:14;;;;;;;16.53;11.87;;;6.50;99.90;;;;;;5005605;28;20507;-68
2021/03/19 11:32:07;;;;;;;13.70;9.63;;;6.50;99.90;;;;;;5002530;28;20459;-69
2021/03/19 11:34:33;;;;;;;11.53;8.80;;;6.80;99.90;;;;;;5013397;28;20418;-67
2021/03/19 11:37:27;;;;;;;10.80;7.70;;;7.00;99.90;;;;;;5013530;28;20404;-67
2021/03/19 11:40:13;;;;;;;9.57;6.90;;;7.20;99.90;;;;;;5013399;28;20577;-67
2021/03/19 11:42:47;;;;;;;12.07;8.20;;;7.30;99.90;;;;;;5013298;28;20407;-68
2021/03/19 11:45:25;;;;;;;10.80;8.33;;;7.50;99.90;;;;;;5012264;28;20815;-67
2021/03/19 11:47:51;;;;;;;11.93;6.60;;;7.60;99.90;;;;;;5013430;28;20419;-66
2021/03/19 11:50:29;;;;;;;10.07;5.90;;;7.70;99.90;;;;;;5013409;28;20403;-69
2021/03/19 11:53:11;;;;;;;12.37;6.40;;;7.60;99.90;;;;;;4995132;28;20207;-69
2021/03/19 11:55:43;;;;;;;9.93;6.77;;;7.60;99.90;;;;;;5013131;28;20506;-69
2021/03/19 11:58:12;;;;;;;7.77;6.13;;;7.70;99.90;;;;;;5012849;28;20426;-67
2021/03/19 12:00:39;;;;;;;7.97;6.30;;;8.00;99.90;;;;;;4995144;28;20420;-70
2021/03/19 12:03:11;;;;;;;8.23;5.43;;;8.50;99.90;;;;;;5012973;28;20445;-70
2021/03/19 12:05:36;;;;;;;7.97;6.37;;;8.80;96.80;;;;;;5013020;28;20431;-69
2021/03/19 12:08:03;;;;;;;12.17;6.93;;;8.80;96.00;;;;;;5013098;28;20415;-68
2021/03/19 12:10:30;;;;;;;7.67;5.23;;;8.90;97.60;;;;;;5012948;28;20259;-69
2021/03/19 12:13:01;;;;;;;8.10;6.50;;;8.90;96.70;;;;;;5012754;28;20981;-70
2021/03/19 12:15:29;;;;;;;11.27;6.60;;;8.90;99.10;;;;;;5012616;28;20416;-70
2021/03/19 12:17:54;;;;;;;8.10;6.43;;;9.00;96.60;;;;;;5011242;28;20833;-68
2021/03/19 12:20:20;;;;;;;7.63;6.57;;;9.40;96.60;;;;;;5012721;28;20506;-69
2021/03/19 12:22:46;;;;;;;8.83;6.50;;;9.80;95.50;;;;;;5012515;28;20180;-68
2021/03/19 12:25:17;;;;;;;8.80;6.23;;;10.10;94.60;;;;;;5030131;28;20749;-68
2021/03/19 12:27:43;;;;;;;9.70;5.83;;;10.40;87.40;;;;;;5020658;28;20635;-69
2021/03/19 12:30:09;;;;;;;6.10;5.13;;;10.60;88.00;;;;;;5018948;28;20176;-69
2021/03/19 12:32:34;;;;;;;8.10;6.40;;;10.80;87.10;;;;;;5027397;28;20254;-69
2021/03/19 12:35:00;;;;;;;8.17;6.73;;;10.60;90.20;;;;;;5012286;28;20947;-68
2021/03/19 12:37:26;;;;;;;9.80;6.53;;;9.70;82.90;;;;;;5031426;28;20246;-68
2021/03/19 12:39:51;;;;;;;8.83;6.73;;;8.70;92.90;;;;;;5028646;28;20172;-69
2021/03/19 12:42:17;;;;;;;9.10;6.17;;;7.90;99.10;;;;;;5023963;28;20292;-69
2021/03/19 12:44:43;;;;;;;10.67;5.80;;;7.50;99.90;;;;;;5031673;28;20197;-69
2021/03/19 12:47:08;;;;;;;7.27;5.63;;;7.10;99.90;;;;;;5018174;28;20227;-68
2021/03/19 12:49:34;;;;;;;11.17;6.00;;;6.80;99.90;;;;;;5031785;28;20206;-68
2021/03/19 12:51:59;;;;;;;8.73;5.90;;;6.80;99.90;;;;;;5024139;28;20692;-68
2021/03/19 12:54:26;;;;;;;8.27;6.40;;;6.80;99.90;;;;;;5016008;28;20176;-68
2021/03/19 12:56:52;;;;;;;11.87;7.13;;;6.60;99.90;;;;;;5031701;28;20514;-68
2021/03/19 12:59:17;;;;;;;8.67;6.77;;;6.60;99.90;;;;;;5018141;28;20422;-68
2021/03/19 13:01:44;;;;;;;7.57;6.33;;;6.70;99.90;;;;;;5013065;28;20176;-68
2021/03/19 13:04:10;;;;;;;9.93;7.07;;;6.60;99.90;;;;;;5012124;28;20207;-68
2021/03/19 13:06:36;;;;;;;8.63;6.13;;;6.70;99.90;;;;;;5011403;28;20425;-69
2021/03/19 13:09:02;;;;;;;9.23;6.93;;;6.70;99.90;;;;;;5029616;28;20182;-69
2021/03/19 13:11:28;;;;;;;11.03;6.27;;;6.80;99.90;;;;;;5031300;28;20545;-70
2021/03/19 13:13:53;;;;;;;10.57;7.20;;;7.00;99.90;;;;;;5031583;28;20847;-68